Time;durP1;ratioP1;P1;durP2;ratioP2;P2;SDS_P1;SDS_P2;PMS_P1;PMS_P2;Temp;Humidity;BMP_temperature;BMP_pressure;BME280_temperature;BME280_humidity;BME280_pressure;Samples;Min_cycle;Max_cycle;Signal;HPM_P1;HPM_P2
2022/10/28 00:00:29;;;;;;;75.13;41.23;;;;;;;10.30;100.00;100916.13;4189850;28;20257;-68
2022/10/28 00:02:59;;;;;;;73.47;40.10;;;;;;;10.21;100.00;100911.56;4207901;28;20229;-68
2022/10/28 00:05:27;;;;;;;73.37;38.60;;;;;;;10.14;100.00;100912.09;4195523;28;21820;-69
2022/10/28 00:07:54;;;;;;;81.33;40.90;;;;;;;10.01;100.00;100921.25;4196173;28;20244;-67
2022/10/28 00:10:20;;;;;;;72.20;40.53;;;;;;;10.13;100.00;100918.38;4199756;28;20243;-68
2022/10/28 00:12:47;;;;;;;77.10;41.40;;;;;;;10.18;100.00;100911.84;4198211;28;20226;-68
2022/10/28 00:15:14;;;;;;;79.50;39.50;;;;;;;10.17;100.00;100910.16;4198086;28;20520;-67
2022/10/28 00:17:40;;;;;;;69.03;38.27;;;;;;;10.12;100.00;100906.06;4195933;28;20264;-70
2022/10/28 00:20:07;;;;;;;74.23;39.07;;;;;;;10.12;100.00;100921.19;4194184;28;22585;-67
2022/10/28 00:22:34;;;;;;;73.27;39.13;;;;;;;10.29;100.00;100914.47;4196175;28;20229;-66
2022/10/28 00:25:00;;;;;;;75.43;41.00;;;;;;;10.19;100.00;100908.22;4190230;28;20550;-66
2022/10/28 00:27:28;;;;;;;74.90;40.93;;;;;;;10.22;100.00;100918.59;4202424;28;20775;-67
2022/10/28 00:29:55;;;;;;;79.50;40.97;;;;;;;10.12;100.00;100918.53;4204543;28;20648;-69
2022/10/28 00:32:22;;;;;;;72.57;36.50;;;;;;;10.01;100.00;100914.13;4197200;28;20234;-70
2022/10/28 00:34:48;;;;;;;78.43;41.37;;;;;;;10.01;100.00;100900.81;4194227;28;20235;-68
2022/10/28 00:37:15;;;;;;;75.20;40.73;;;;;;;10.09;100.00;100894.84;4200651;28;20410;-66
2022/10/28 00:39:41;;;;;;;76.83;39.90;;;;;;;10.16;100.00;100896.03;4204728;28;21264;-67
2022/10/28 00:42:09;;;;;;;82.97;41.93;;;;;;;10.07;100.00;100895.00;4200826;28;21044;-67
2022/10/28 00:44:38;;;;;;;82.30;43.70;;;;;;;10.05;100.00;100891.63;4198472;28;20233;-68
2022/10/28 00:47:12;;;;;;;79.50;41.83;;;;;;;9.92;100.00;100894.47;4203056;28;25753;-66
2022/10/28 00:49:38;;;;;;;77.10;40.73;;;;;;;10.01;100.00;100890.19;4198054;28;20230;-68
2022/10/28 00:52:09;;;;;;;67.00;39.53;;;;;;;10.10;100.00;100884.09;4203301;28;20233;-68
2022/10/28 00:54:36;;;;;;;71.13;40.27;;;;;;;10.10;100.00;100891.22;4197344;28;21732;-67
2022/10/28 00:57:05;;;;;;;75.33;42.20;;;;;;;9.92;100.00;100881.16;4194305;28;20235;-67
2022/10/28 00:59:34;;;;;;;68.67;40.13;;;;;;;9.89;100.00;100885.91;4196118;28;20304;-69
2022/10/28 01:02:01;;;;;;;70.47;39.53;;;;;;;9.84;100.00;100883.63;4186073;28;20315;-67
2022/10/28 01:04:27;;;;;;;73.90;40.43;;;;;;;9.83;100.00;100881.09;4204275;28;21117;-66
2022/10/28 01:06:55;;;;;;;71.43;39.70;;;;;;;9.82;100.00;100882.91;4215710;28;22867;-66
2022/10/28 01:09:21;;;;;;;81.93;42.90;;;;;;;9.80;100.00;100876.06;4195312;28;20308;-67
2022/10/28 01:12:30;;;;;;;81.23;40.93;;;;;;;9.90;100.00;100879.59;4205254;28;22350;-69
2022/10/28 01:15:25;;;;;;;74.77;41.70;;;;;;;9.90;100.00;100883.13;4190401;28;20239;-68
2022/10/28 01:18:00;;;;;;;83.27;41.07;;;;;;;9.74;100.00;100877.44;4209839;28;20296;-67
2022/10/28 01:20:38;;;;;;;66.60;38.80;;;;;;;9.77;100.00;100885.13;4211845;28;20252;-68
2022/10/28 01:23:26;;;;;;;67.77;38.13;;;;;;;9.76;100.00;100885.25;4196911;28;20236;-67
2022/10/28 01:26:05;;;;;;;80.60;42.53;;;;;;;9.80;100.00;100882.19;4206794;28;20229;-67
2022/10/28 01:28:40;;;;;;;81.50;42.80;;;;;;;9.72;100.00;100885.50;4203352;28;22199;-67
2022/10/28 01:31:11;;;;;;;72.10;39.27;;;;;;;9.69;100.00;100882.25;4190104;28;21772;-66
2022/10/28 01:33:48;;;;;;;77.60;41.17;;;;;;;9.62;100.00;100875.78;4205204;28;20364;-66
2022/10/28 01:36:25;;;;;;;77.23;41.40;;;;;;;9.60;100.00;100875.91;4207182;28;22433;-66
2022/10/28 01:39:12;;;;;;;77.47;42.37;;;;;;;9.50;100.00;100869.66;4201993;28;20270;-66
2022/10/28 01:41:53;;;;;;;71.93;38.53;;;;;;;9.44;100.00;100868.38;4211324;28;25747;-66
2022/10/28 01:44:28;;;;;;;72.63;39.17;;;;;;;9.41;100.00;100867.78;4203040;28;20244;-67
2022/10/28 01:47:01;;;;;;;87.43;43.03;;;;;;;9.35;100.00;100863.81;4202504;28;20338;-66
2022/10/28 01:49:47;;;;;;;85.70;42.07;;;;;;;9.40;100.00;100863.44;4187893;28;20248;-66
2022/10/28 01:52:16;;;;;;;89.00;44.97;;;;;;;9.36;100.00;100867.31;4204921;28;20643;-68
2022/10/28 01:54:45;;;;;;;86.57;43.90;;;;;;;9.29;100.00;100870.50;4213023;28;20369;-66
2022/10/28 01:57:13;;;;;;;79.67;41.03;;;;;;;9.27;100.00;100875.09;4211501;28;20312;-66
2022/10/28 01:59:40;;;;;;;78.17;43.73;;;;;;;9.23;100.00;100878.13;4204393;28;20232;-66
2022/10/28 02:02:06;;;;;;;94.00;45.63;;;;;;;9.22;100.00;100871.09;4194157;28;21014;-68
2022/10/28 02:04:33;;;;;;;82.67;42.13;;;;;;;9.21;100.00;100875.56;4198979;28;20302;-66
2022/10/28 02:06:59;;;;;;;76.33;42.00;;;;;;;9.29;100.00;100875.81;4203833;28;20238;-66
2022/10/28 02:09:41;;;;;;;82.30;42.93;;;;;;;9.41;100.00;100865.97;4194889;28;20226;-67
2022/10/28 02:12:30;;;;;;;76.03;42.53;;;;;;;9.37;100.00;100858.38;4215977;28;21669;-66
2022/10/28 02:15:18;;;;;;;91.23;44.50;;;;;;;9.25;100.00;100853.13;4209181;28;20235;-68
2022/10/28 02:18:16;;;;;;;85.47;43.10;;;;;;;9.26;100.00;100852.13;4227859;28;20292;-67
2022/10/28 02:20:55;;;;;;;83.83;42.77;;;;;;;9.25;100.00;100839.84;4218546;28;20244;-67
2022/10/28 02:24:00;;;;;;;79.37;40.17;;;;;;;9.22;100.00;100839.22;4203608;28;20237;-67
2022/10/28 02:26:58;;;;;;;81.00;43.30;;;;;;;9.06;100.00;100836.97;4205798;28;20247;-67
2022/10/28 02:29:45;;;;;;;75.27;39.53;;;;;;;9.07;100.00;100838.69;4217562;28;20243;-66
2022/10/28 02:32:15;;;;;;;77.67;41.70;;;;;;;9.04;100.00;100830.97;4234469;28;20938;-67
2022/10/28 02:34:44;;;;;;;78.83;42.50;;;;;;;9.03;100.00;100831.94;4215967;28;20335;-67
2022/10/28 02:37:16;;;;;;;81.20;42.93;;;;;;;9.04;100.00;100830.97;4211967;28;20337;-67
2022/10/28 02:39:45;;;;;;;80.30;43.17;;;;;;;9.10;100.00;100825.16;4210118;28;22969;-66
2022/10/28 02:42:23;;;;;;;86.30;45.70;;;;;;;9.13;100.00;100816.97;4199553;28;20314;-69
2022/10/28 02:44:55;;;;;;;78.40;42.33;;;;;;;9.30;100.00;100821.69;4215771;28;20226;-68
2022/10/28 02:47:24;;;;;;;90.30;44.70;;;;;;;9.23;100.00;100825.84;4199863;28;20422;-67
2022/10/28 02:49:57;;;;;;;80.10;44.50;;;;;;;9.17;100.00;100821.03;4212749;28;23540;-67
2022/10/28 02:52:25;;;;;;;85.87;45.07;;;;;;;9.34;100.00;100811.69;4199912;28;20379;-68
2022/10/28 02:54:54;;;;;;;84.67;44.33;;;;;;;9.30;100.00;100818.22;4206430;28;20366;-66
2022/10/28 02:57:23;;;;;;;82.10;45.07;;;;;;;9.32;100.00;100826.03;4215582;28;20601;-65
2022/10/28 02:59:56;;;;;;;78.13;45.27;;;;;;;9.27;100.00;100816.66;4201784;28;20238;-67
2022/10/28 03:02:23;;;;;;;82.30;43.00;;;;;;;9.29;100.00;100816.50;4205202;28;20233;-67
2022/10/28 03:04:50;;;;;;;79.50;43.03;;;;;;;9.25;100.00;100817.75;4201926;28;20236;-65
2022/10/28 03:07:17;;;;;;;73.13;39.80;;;;;;;9.21;100.00;100814.50;4207439;28;23301;-67
2022/10/28 03:09:43;;;;;;;80.17;42.27;;;;;;;9.22;100.00;100829.44;4215195;28;20899;-66
2022/10/28 03:12:10;;;;;;;80.73;42.50;;;;;;;9.20;100.00;100827.88;4207977;28;20232;-66
2022/10/28 03:14:36;;;;;;;77.37;40.20;;;;;;;9.23;100.00;100820.53;4215164;28;20476;-66
2022/10/28 03:17:03;;;;;;;77.97;43.73;;;;;;;9.29;100.00;100814.72;4208246;28;20295;-66
2022/10/28 03:19:30;;;;;;;73.83;40.00;;;;;;;9.37;100.00;100818.56;4222739;28;21120;-65
2022/10/28 03:21:56;;;;;;;73.97;40.00;;;;;;;9.30;100.00;100819.03;4210571;28;20229;-65
2022/10/28 03:24:23;;;;;;;72.97;40.77;;;;;;;9.17;100.00;100821.03;4212928;28;20237;-66
2022/10/28 03:26:50;;;;;;;68.73;40.83;;;;;;;9.11;100.00;100812.72;4203752;28;21084;-65
2022/10/28 03:29:17;;;;;;;81.93;42.83;;;;;;;9.00;100.00;100813.63;4208768;28;20391;-69
2022/10/28 03:31:43;;;;;;;68.10;39.30;;;;;;;8.95;100.00;100815.81;4203694;28;20234;-67
2022/10/28 03:34:10;;;;;;;64.93;37.87;;;;;;;8.96;100.00;100818.31;4192660;28;20499;-67
2022/10/28 03:36:36;;;;;;;68.80;38.47;;;;;;;9.05;100.00;100816.72;4207716;28;20228;-67
2022/10/28 03:39:03;;;;;;;72.83;39.53;;;;;;;8.93;100.00;100815.91;4203493;28;22253;-67
2022/10/28 03:41:29;;;;;;;66.87;38.03;;;;;;;8.88;100.00;100810.97;4215784;28;20457;-69
2022/10/28 03:43:56;;;;;;;69.47;39.77;;;;;;;8.83;100.00;100797.25;4210394;28;21084;-67
2022/10/28 03:46:22;;;;;;;72.37;40.03;;;;;;;8.79;100.00;100800.28;4202022;28;20236;-66
2022/10/28 03:48:49;;;;;;;66.03;38.53;;;;;;;8.77;100.00;100791.59;4211870;28;20243;-67
2022/10/28 03:51:16;;;;;;;69.23;40.17;;;;;;;8.77;100.00;100797.75;4195636;28;20424;-66
2022/10/28 03:53:43;;;;;;;65.23;36.67;;;;;;;8.81;100.00;100799.19;4214733;28;20369;-66
2022/10/28 03:56:10;;;;;;;62.23;37.07;;;;;;;8.82;100.00;100798.19;4205507;28;20238;-65
2022/10/28 03:58:36;;;;;;;70.93;40.63;;;;;;;8.87;100.00;100787.22;4201428;28;21097;-67
2022/10/28 04:01:06;;;;;;;64.63;38.70;;;;;;;8.78;100.00;100786.19;4212406;28;20633;-67
2022/10/28 04:03:33;;;;;;;63.53;36.53;;;;;;;8.93;100.00;100788.53;4218028;28;20319;-67
2022/10/28 04:06:00;;;;;;;69.83;37.77;;;;;;;8.85;100.00;100789.19;4215489;28;20241;-69
2022/10/28 04:08:26;;;;;;;69.23;40.20;;;;;;;8.86;100.00;100791.69;4210743;28;20296;-66
2022/10/28 04:10:53;;;;;;;61.70;38.20;;;;;;;8.84;100.00;100793.63;4216621;28;26742;-65
2022/10/28 04:13:19;;;;;;;66.87;37.07;;;;;;;8.81;100.00;100793.88;4206836;28;20350;-66
2022/10/28 04:15:46;;;;;;;59.13;34.87;;;;;;;8.85;100.00;100795.31;4203237;28;20237;-67
2022/10/28 04:18:12;;;;;;;59.33;35.57;;;;;;;8.84;100.00;100798.94;4211145;28;20556;-66
2022/10/28 04:20:39;;;;;;;63.77;36.70;;;;;;;8.82;100.00;100797.38;4205800;28;23516;-64
2022/10/28 04:23:06;;;;;;;68.07;37.53;;;;;;;8.78;100.00;100802.09;4213861;28;20401;-65
2022/10/28 04:25:32;;;;;;;68.70;39.53;;;;;;;8.79;100.00;100803.78;4204512;28;21120;-66
2022/10/28 04:27:59;;;;;;;60.93;36.00;;;;;;;8.79;100.00;100800.28;4206173;28;20431;-66
2022/10/28 04:30:25;;;;;;;68.40;38.43;;;;;;;8.73;100.00;100796.28;4199840;28;20236;-68
2022/10/28 04:32:52;;;;;;;65.20;37.20;;;;;;;8.70;100.00;100790.41;4213496;28;20451;-66
2022/10/28 04:35:19;;;;;;;62.23;36.37;;;;;;;8.73;100.00;100787.50;4204052;28;20394;-65
2022/10/28 04:37:45;;;;;;;66.63;40.07;;;;;;;8.74;100.00;100799.81;4206884;28;23528;-64
2022/10/28 04:40:12;;;;;;;77.57;44.00;;;;;;;8.66;100.00;100795.97;4212994;28;20305;-66
2022/10/28 04:42:38;;;;;;;75.27;41.33;;;;;;;8.63;100.00;100795.38;4196392;28;20274;-67
2022/10/28 04:45:05;;;;;;;70.53;38.37;;;;;;;8.65;100.00;100793.44;4203748;28;20241;-65
2022/10/28 04:47:32;;;;;;;63.30;36.10;;;;;;;8.69;100.00;100783.44;4224112;28;21207;-68
2022/10/28 04:49:58;;;;;;;81.40;40.37;;;;;;;8.67;100.00;100780.88;4205984;28;20268;-65
2022/10/28 04:52:25;;;;;;;70.60;39.07;;;;;;;8.65;100.00;100777.50;4215620;28;20239;-69
2022/10/28 04:54:51;;;;;;;71.37;40.03;;;;;;;8.59;100.00;100768.25;4218891;28;20237;-68
2022/10/28 04:57:18;;;;;;;74.40;38.93;;;;;;;8.54;100.00;100764.28;4205491;28;20234;-67
2022/10/28 04:59:45;;;;;;;72.30;37.50;;;;;;;8.52;100.00;100766.19;4198888;28;20425;-66
2022/10/28 05:02:12;;;;;;;71.00;38.40;;;;;;;8.54;100.00;100769.56;4205871;28;20522;-68
2022/10/28 05:04:38;;;;;;;69.50;38.37;;;;;;;8.48;100.00;100780.69;4202639;28;20230;-64
2022/10/28 05:07:05;;;;;;;73.50;40.27;;;;;;;8.51;100.00;100773.31;4211552;28;20239;-67
2022/10/28 05:09:32;;;;;;;72.77;41.03;;;;;;;8.57;100.00;100770.19;4203422;28;20310;-67
2022/10/28 05:11:59;;;;;;;64.33;36.20;;;;;;;8.57;100.00;100756.91;4208700;28;20307;-68
2022/10/28 05:14:25;;;;;;;64.93;38.10;;;;;;;8.52;100.00;100760.88;4208946;28;22317;-69
2022/10/28 05:16:52;;;;;;;64.90;36.00;;;;;;;8.54;100.00;100766.91;4209907;28;20232;-67
2022/10/28 05:19:18;;;;;;;69.67;36.13;;;;;;;8.55;100.00;100758.00;4198860;28;20240;-67
2022/10/28 05:21:45;;;;;;;66.83;37.23;;;;;;;8.57;100.00;100756.06;4203615;28;20237;-67
2022/10/28 05:24:11;;;;;;;70.27;37.73;;;;;;;8.62;100.00;100759.19;4217735;28;20350;-63
2022/10/28 05:26:38;;;;;;;64.60;34.87;;;;;;;8.72;100.00;100760.13;4191594;28;20632;-66
2022/10/28 05:29:04;;;;;;;65.87;35.93;;;;;;;8.78;100.00;100753.47;4211516;28;21330;-67
2022/10/28 05:31:31;;;;;;;62.83;35.23;;;;;;;8.86;100.00;100751.03;4212121;28;20760;-66
2022/10/28 05:33:57;;;;;;;64.80;35.53;;;;;;;8.98;100.00;100757.16;4210210;28;20240;-67
2022/10/28 05:36:25;;;;;;;66.30;36.37;;;;;;;9.03;100.00;100752.28;4201257;28;20735;-65
2022/10/28 05:38:51;;;;;;;65.97;34.97;;;;;;;8.98;100.00;100751.84;4204993;28;20279;-68
2022/10/28 05:41:18;;;;;;;65.20;35.77;;;;;;;8.93;100.00;100759.34;4202621;28;20370;-63
2022/10/28 05:43:44;;;;;;;72.93;35.23;;;;;;;8.86;100.00;100756.34;4218506;28;20928;-65
2022/10/28 05:46:11;;;;;;;64.30;35.20;;;;;;;8.88;100.00;100751.75;4196999;28;22196;-66
2022/10/28 05:48:37;;;;;;;65.00;35.70;;;;;;;8.86;100.00;100753.69;4206257;28;20241;-66
2022/10/28 05:51:04;;;;;;;61.50;34.80;;;;;;;8.86;100.00;100751.88;4217386;28;21130;-65
2022/10/28 05:53:31;;;;;;;69.67;36.10;;;;;;;8.91;100.00;100745.34;4214407;28;20600;-64
2022/10/28 05:55:57;;;;;;;67.97;36.00;;;;;;;8.98;100.00;100751.84;4224764;28;20232;-63
2022/10/28 05:58:25;;;;;;;63.80;35.07;;;;;;;9.00;100.00;100749.91;4206905;28;21095;-62
2022/10/28 06:00:52;;;;;;;59.50;34.00;;;;;;;9.03;100.00;100744.34;4206580;28;20363;-69
2022/10/28 06:03:18;;;;;;;64.93;35.77;;;;;;;9.03;100.00;100749.66;4209360;28;21606;-68
2022/10/28 06:05:45;;;;;;;59.27;33.47;;;;;;;9.06;100.00;100749.38;4212508;28;20285;-73
2022/10/28 06:08:12;;;;;;;63.13;35.60;;;;;;;9.06;100.00;100744.94;4213520;28;20327;-65
2022/10/28 06:10:39;;;;;;;64.70;34.90;;;;;;;9.13;100.00;100749.72;4202173;28;20364;-74
2022/10/28 06:13:07;;;;;;;57.43;34.23;;;;;;;9.19;100.00;100755.34;4230754;28;20240;-65
2022/10/28 06:15:34;;;;;;;63.70;33.27;;;;;;;9.20;100.00;100751.75;4202015;28;20340;-66
2022/10/28 06:18:00;;;;;;;60.30;35.23;;;;;;;9.22;100.00;100744.47;4188306;28;20233;-67
2022/10/28 06:20:27;;;;;;;58.63;33.43;;;;;;;9.33;100.00;100745.41;4203015;28;21837;-71
2022/10/28 06:22:55;;;;;;;57.93;33.73;;;;;;;9.34;100.00;100749.72;4206533;28;22376;-65
2022/10/28 06:25:25;;;;;;;59.40;33.30;;;;;;;9.41;100.00;100748.25;4227181;28;20244;-69
2022/10/28 06:27:58;;;;;;;59.83;33.47;;;;;;;9.39;100.00;100740.41;4204360;28;20322;-63
2022/10/28 06:30:26;;;;;;;61.03;33.33;;;;;;;9.42;100.00;100749.94;4199415;28;20568;-73
2022/10/28 06:32:55;;;;;;;72.10;34.33;;;;;;;9.54;100.00;100748.91;4194581;28;20244;-77
2022/10/28 06:35:22;;;;;;;55.00;31.37;;;;;;;9.62;100.00;100749.09;4203667;28;20233;-70
2022/10/28 06:37:55;;;;;;;53.30;31.23;;;;;;;9.72;100.00;100742.00;4192567;28;25349;-72
2022/10/28 06:40:23;;;;;;;53.20;30.47;;;;;;;9.82;100.00;100746.53;4215125;28;20350;-71
2022/10/28 06:43:01;;;;;;;51.87;31.40;;;;;;;9.86;100.00;100751.44;4206008;28;20225;-71
2022/10/28 06:45:29;;;;;;;53.10;31.17;;;;;;;9.87;100.00;100754.94;4212326;28;20290;-67
2022/10/28 06:48:01;;;;;;;55.17;31.43;;;;;;;10.05;100.00;100757.84;4202713;28;20241;-75
2022/10/28 06:50:28;;;;;;;48.87;29.90;;;;;;;10.06;100.00;100755.03;4178290;28;20240;-70
2022/10/28 06:52:56;;;;;;;48.90;29.23;;;;;;;10.12;100.00;100757.16;4202685;28;20790;-72
2022/10/28 06:55:25;;;;;;;49.03;29.57;;;;;;;10.42;100.00;100765.25;4189605;28;20623;-73
2022/10/28 06:57:52;;;;;;;50.47;29.77;;;;;;;10.54;100.00;100756.19;4216589;28;20384;-74
2022/10/28 07:00:19;;;;;;;50.03;29.27;;;;;;;10.70;100.00;100758.31;4195905;28;20583;-68
2022/10/28 07:02:51;;;;;;;48.87;27.80;;;;;;;10.78;100.00;100761.13;4200940;28;20794;-71
2022/10/28 07:05:17;;;;;;;45.03;27.47;;;;;;;10.98;100.00;100772.66;4199126;28;21181;-70
2022/10/28 07:07:44;;;;;;;50.97;27.20;;;;;;;11.01;100.00;100769.72;4212789;28;20586;-66
2022/10/28 07:10:11;;;;;;;54.40;26.90;;;;;;;11.10;100.00;100778.69;4198646;28;20615;-72
2022/10/28 07:12:37;;;;;;;49.43;26.90;;;;;;;11.14;100.00;100775.59;4210105;28;20531;-71
2022/10/28 07:15:04;;;;;;;45.97;27.00;;;;;;;11.20;100.00;100768.88;4205689;28;20311;-66
2022/10/28 07:17:31;;;;;;;43.40;26.43;;;;;;;11.16;100.00;100770.94;4217796;28;20237;-69
2022/10/28 07:19:57;;;;;;;54.17;27.30;;;;;;;11.29;100.00;100760.03;4199123;28;20508;-69
2022/10/28 07:22:25;;;;;;;47.23;25.80;;;;;;;11.46;100.00;100766.44;4203775;28;20348;-68
2022/10/28 07:24:52;;;;;;;50.27;26.43;;;;;;;11.59;100.00;100760.84;4202677;28;21184;-67
2022/10/28 07:27:18;;;;;;;47.93;26.97;;;;;;;11.59;100.00;100758.16;4202071;28;22512;-66
2022/10/28 07:29:45;;;;;;;43.63;25.90;;;;;;;11.83;100.00;100760.34;4204724;28;20226;-69
2022/10/28 07:32:12;;;;;;;43.10;25.93;;;;;;;12.06;100.00;100752.00;4208982;28;20233;-68
2022/10/28 07:34:38;;;;;;;43.40;25.47;;;;;;;12.21;100.00;100746.03;4203765;28;20241;-69
2022/10/28 07:37:05;;;;;;;45.17;26.03;;;;;;;12.19;100.00;100753.34;4193958;28;20260;-66
2022/10/28 07:39:31;;;;;;;48.77;25.73;;;;;;;12.38;100.00;100757.72;4211076;28;20434;-71
2022/10/28 07:42:00;;;;;;;49.20;25.13;;;;;;;12.41;100.00;100752.13;4202757;28;25068;-69
2022/10/28 07:44:29;;;;;;;45.87;24.63;;;;;;;12.57;100.00;100756.81;4234646;28;20239;-75
2022/10/28 07:46:55;;;;;;;48.00;25.63;;;;;;;12.66;100.00;100761.22;4208365;28;20272;-67
2022/10/28 07:49:23;;;;;;;48.93;27.27;;;;;;;12.81;100.00;100758.91;4224643;28;21256;-68
2022/10/28 07:51:51;;;;;;;49.53;24.13;;;;;;;13.31;100.00;100765.53;4226081;28;20240;-71
2022/10/28 07:54:17;;;;;;;41.47;23.73;;;;;;;14.82;98.27;100764.19;4242449;28;22298;-72
2022/10/28 07:56:44;;;;;;;43.47;21.93;;;;;;;18.40;79.62;100787.72;4226727;28;20316;-70
2022/10/28 07:59:11;;;;;;;36.47;19.13;;;;;;;21.66;61.21;100802.56;4211961;28;20296;-69
2022/10/28 08:01:37;;;;;;;36.33;19.00;;;;;;;23.00;50.53;100803.88;4219820;28;20372;-71
2022/10/28 08:04:04;;;;;;;32.40;17.80;;;;;;;22.60;49.46;100795.91;4213189;28;20268;-71
2022/10/28 08:06:32;;;;;;;36.83;19.73;;;;;;;19.89;59.03;100781.78;4217993;28;20406;-71
2022/10/28 08:08:59;;;;;;;38.53;20.90;;;;;;;17.90;67.74;100771.28;4196823;28;20233;-71
2022/10/28 08:11:25;;;;;;;36.60;19.70;;;;;;;16.52;75.17;100757.03;4212259;28;20426;-69
2022/10/28 08:13:54;;;;;;;36.53;21.13;;;;;;;15.76;81.63;100746.75;4195400;28;21300;-72
2022/10/28 08:16:20;;;;;;;41.07;22.03;;;;;;;15.66;83.12;100739.84;4180819;28;21930;-72
2022/10/28 08:18:47;;;;;;;43.87;22.43;;;;;;;15.84;83.64;100745.88;4223305;28;21352;-65
2022/10/28 08:21:14;;;;;;;43.50;22.20;;;;;;;16.35;80.37;100749.06;4215460;28;20229;-73
2022/10/28 08:23:45;;;;;;;46.47;22.73;;;;;;;17.39;75.67;100751.41;4252040;28;20229;-71
2022/10/28 08:26:13;;;;;;;33.73;19.60;;;;;;;19.59;65.83;100765.72;4215477;28;20233;-74
2022/10/28 08:28:40;;;;;;;31.30;18.40;;;;;;;21.14;57.46;100772.53;4226336;28;20661;-73
2022/10/28 08:31:11;;;;;;;34.10;18.87;;;;;;;20.95;56.31;100776.00;4261417;28;20641;-69
2022/10/28 08:33:41;;;;;;;41.17;20.27;;;;;;;19.92;59.58;100767.84;4217072;28;22012;-65
2022/10/28 08:36:09;;;;;;;35.87;20.67;;;;;;;18.88;64.48;100760.31;4202169;28;22320;-70
2022/10/28 08:38:36;;;;;;;38.60;21.40;;;;;;;18.05;68.69;100757.84;4209520;28;23081;-71
2022/10/28 08:41:19;;;;;;;37.10;21.70;;;;;;;17.00;73.62;100739.81;4205291;28;20244;-71
2022/10/28 08:44:29;;;;;;;40.37;21.63;;;;;;;16.23;79.05;100731.66;4216757;28;20657;-68
2022/10/28 08:47:11;;;;;;;36.27;21.23;;;;;;;15.82;82.01;100738.00;4242855;28;20243;-69
2022/10/28 08:49:39;;;;;;;40.90;21.90;;;;;;;16.81;80.10;100738.44;4225099;28;20245;-73
2022/10/28 08:52:30;;;;;;;36.10;20.07;;;;;;;19.82;65.18;100758.25;4245644;28;22952;-71
2022/10/28 08:55:05;;;;;;;36.00;19.93;;;;;;;22.63;51.90;100770.22;4239419;28;20242;-70
2022/10/28 08:57:42;;;;;;;32.27;19.87;;;;;;;23.41;47.50;100769.94;4210346;28;20239;-74
2022/10/28 09:00:25;;;;;;;36.77;19.83;;;;;;;22.61;50.32;100775.84;4242622;28;20302;-70
2022/10/28 09:03:06;;;;;;;32.53;19.77;;;;;;;21.60;52.96;100766.31;4209528;28;21358;-71
2022/10/28 09:05:32;;;;;;;36.97;20.60;;;;;;;20.63;56.46;100760.34;4242932;28;20458;-72
2022/10/28 09:08:00;;;;;;;36.47;19.63;;;;;;;19.70;60.45;100748.19;4214298;28;20342;-72
2022/10/28 09:10:57;;;;;;;41.87;21.30;;;;;;;18.40;67.39;100744.59;4214294;28;20239;-71
2022/10/28 09:13:48;;;;;;;37.47;21.43;;;;;;;18.20;68.85;100740.84;4217290;28;20248;-71
2022/10/28 09:16:45;;;;;;;43.83;20.93;;;;;;;18.14;70.22;100732.50;4209115;28;20239;-69
2022/10/28 09:19:30;;;;;;;40.43;20.73;;;;;;;18.08;70.38;100744.00;4243881;28;20279;-70
2022/10/28 09:22:32;;;;;;;41.17;21.67;;;;;;;17.55;73.19;100737.81;4207077;28;20252;-72
2022/10/28 09:25:01;;;;;;;38.20;20.77;;;;;;;17.26;75.26;100735.91;4198968;28;20228;-70
2022/10/28 09:27:46;;;;;;;41.80;22.03;;;;;;;17.45;75.80;100730.00;4219072;28;25851;-71
2022/10/28 09:30:49;;;;;;;41.60;21.47;;;;;;;17.84;74.12;100736.19;4233948;28;20569;-70
2022/10/28 09:33:39;;;;;;;41.57;21.30;;;;;;;18.04;71.80;100729.25;4215395;28;20303;-72
2022/10/28 09:36:12;;;;;;;39.20;20.90;;;;;;;17.84;73.05;100728.13;4205230;28;20421;-70
2022/10/28 09:38:38;;;;;;;36.93;20.87;;;;;;;17.99;73.16;100731.66;4186718;28;20242;-70
2022/10/28 09:41:10;;;;;;;39.67;20.73;;;;;;;17.99;73.35;100725.44;4190877;28;25449;-72
2022/10/28 09:43:58;;;;;;;43.57;21.83;;;;;;;17.83;73.52;100729.97;4202780;28;20251;-72
2022/10/28 09:46:27;;;;;;;39.17;21.37;;;;;;;17.37;76.34;100726.53;4194369;28;20245;-72
2022/10/28 09:49:05;;;;;;;43.73;21.23;;;;;;;17.10;77.56;100720.75;4217715;28;20268;-70
2022/10/28 09:51:45;;;;;;;42.27;22.03;;;;;;;17.25;77.51;100718.91;4200740;28;20411;-74
2022/10/28 09:54:12;;;;;;;47.57;22.03;;;;;;;17.55;76.63;100718.97;4197549;28;21752;-72
2022/10/28 09:56:39;;;;;;;41.57;21.67;;;;;;;17.91;75.65;100720.97;4224463;28;21664;-72
2022/10/28 09:59:09;;;;;;;38.80;21.47;;;;;;;18.45;72.28;100723.34;4203094;28;20229;-71
2022/10/28 10:01:37;;;;;;;37.40;19.73;;;;;;;18.71;71.37;100722.78;4204475;28;20243;-72
2022/10/28 10:04:34;;;;;;;42.60;20.00;;;;;;;18.72;70.96;100727.16;4214776;28;20241;-72
2022/10/28 10:07:09;;;;;;;31.97;20.00;;;;;;;18.42;71.66;100718.31;4196222;28;21095;-70
2022/10/28 10:09:37;;;;;;;36.53;20.63;;;;;;;18.41;72.19;100713.94;4210386;28;21259;-70
2022/10/28 10:12:08;;;;;;;38.73;20.07;;;;;;;18.46;72.36;100710.69;4206359;28;25623;-70
2022/10/28 10:14:48;;;;;;;34.27;19.73;;;;;;;18.63;72.17;100705.91;4222594;28;20241;-74
2022/10/28 10:17:19;;;;;;;36.27;20.93;;;;;;;18.69;71.37;100705.13;4202325;28;20255;-70
2022/10/28 10:20:08;;;;;;;36.07;19.40;;;;;;;18.61;71.38;100699.84;4203155;28;21197;-72
2022/10/28 10:22:36;;;;;;;38.73;19.50;;;;;;;18.38;72.38;100708.94;4233134;28;21563;-69
2022/10/28 10:25:25;;;;;;;32.37;18.77;;;;;;;18.39;72.63;100707.09;4213455;28;20459;-71
2022/10/28 10:28:13;;;;;;;36.77;20.20;;;;;;;18.37;73.54;100707.25;4196454;28;22143;-70
2022/10/28 10:30:51;;;;;;;41.60;19.40;;;;;;;18.57;72.60;100707.50;4219343;28;20237;-72
2022/10/28 10:33:20;;;;;;;32.43;18.93;;;;;;;18.43;73.15;100706.53;4217370;28;20512;-70
2022/10/28 10:36:06;;;;;;;36.00;19.63;;;;;;;18.41;74.17;100708.56;4224672;28;23049;-71
2022/10/28 10:38:34;;;;;;;35.03;18.97;;;;;;;18.60;73.14;100695.50;4247404;28;22573;-72
2022/10/28 10:41:00;;;;;;;35.00;19.60;;;;;;;18.74;72.10;100692.75;4271895;28;22170;-70
2022/10/28 10:43:31;;;;;;;37.97;19.50;;;;;;;18.63;72.24;100689.72;4230722;28;21817;-71
2022/10/28 10:46:13;;;;;;;36.73;19.07;;;;;;;18.30;73.53;100680.25;4218677;28;21315;-76
2022/10/28 10:48:40;;;;;;;37.80;18.43;;;;;;;18.39;74.05;100667.50;4232539;28;20242;-71
2022/10/28 10:51:14;;;;;;;34.77;18.37;;;;;;;18.45;73.76;100666.75;4203338;28;20228;-73
2022/10/28 10:53:46;;;;;;;35.93;18.00;;;;;;;18.47;73.48;100669.22;4214267;28;20307;-73
2022/10/28 10:56:22;;;;;;;31.70;17.33;;;;;;;18.42;73.47;100672.50;4200693;28;20243;-70
2022/10/28 10:58:51;;;;;;;36.83;17.93;;;;;;;18.29;74.81;100675.06;4227100;28;20243;-69
2022/10/28 11:01:21;;;;;;;34.70;17.80;;;;;;;18.29;74.85;100677.75;4215735;28;20301;-70
2022/10/28 11:03:58;;;;;;;32.43;16.87;;;;;;;18.32;74.96;100664.72;4240023;28;20233;-72
2022/10/28 11:06:33;;;;;;;36.13;18.00;;;;;;;18.30;75.23;100663.25;4227098;28;25361;-71
2022/10/28 11:09:03;;;;;;;37.17;17.07;;;;;;;18.29;75.02;100650.81;4213141;28;20253;-69
2022/10/28 11:11:35;;;;;;;29.47;16.27;;;;;;;18.29;75.25;100650.81;4224310;28;25783;-72
2022/10/28 11:14:18;;;;;;;36.17;16.43;;;;;;;18.22;75.10;100649.91;4216413;28;20492;-72
2022/10/28 11:16:49;;;;;;;25.33;14.73;;;;;;;18.25;74.70;100641.44;4226365;28;20277;-64
2022/10/28 11:19:27;;;;;;;28.63;16.03;;;;;;;18.29;75.22;100634.66;4225351;28;20285;-73
2022/10/28 11:22:26;;;;;;;30.97;15.83;;;;;;;18.19;75.64;100634.97;4214745;28;20340;-74
2022/10/28 11:25:18;;;;;;;35.43;16.30;;;;;;;18.26;75.37;100635.00;4243582;28;20348;-70